Details From LYTV - Tivat
To LYBE - Belgrade
Flight Number -
Tags generated
Created
Modified
Stats Distance 161 nm / 297 km
Max Altitude 15,900 ft / 4,846 m
Waypoints 3
Social Downloads 0
Likes 0
Share VATSIM

Download

Looking for another format? Having issues loading an existing format? Contact us
Advertisement - Login to hide

Notes

Basic altitude profile: - Ascent Rate: 1500ft/min - Ascent Speed: 250kts - Cruise Altitude: 16000ft - Cruise Speed: 380kts - Descent Rate: 1400ft/min - Descent Speed: 250kts Options: - Use NATs: yes - Use PACOTS: yes - Use low airways: yes - Use high airways: no

Route

LYTV PESAK LYBE

ID Type Via Altitude Latitude Longitude Leg Dist Tot Dist Heading (true) Name
O LYTV APT - 0 ft / 0 m 42.40466˚ 18.72329˚ - 0 nm - Tivat
PESAK FIX - 15,900 ft / 4,846 m 43.71861˚ 19.50417˚ 86 nm 86 nm 23° / 24° -
O LYBE APT - 0 ft / 0 m 44.81843˚ 20.30921˚ 74 nm 160 nm 27° / 28° Belgrade

Altitude Profile

Advertisement - Login to hide

LYTV

Details ICAO LYTV (TIV)
Name Tivat
Region Serbia and Montenegro
Timezone Europe/Podgorica (UTC+1.0)
Stats Elevation 20 ft / 6 m (AMSL)
Location 42.404657° 18.723295°
Runways 1
Magnetic Variation 4.163° E

METAR

LYTV 161830Z VRB01KT CAVOK 09/08 Q1008

Decode

TAF

TAF LYTV 161700Z 1618/1718 15008KT 9999 SCT030 OVC080 TX11/1712Z TN07/1703Z TEMPO 1714/1718 5000 RA

Decode

Departure Runways

ID Width Length Bearing (true) Bearing (mag) Surface Threshold Offset Overrun Length
14 148 ft / 45 m 8,206 ft / 2,501 m 139.03° 134.87° Asphalt 300 ft / 91 m 0 ft / 0 m
32 148 ft / 45 m 8,206 ft / 2,501 m 319.04° 314.88° Asphalt 300 ft / 91 m 0 ft / 0 m

LYBE

Details ICAO LYBE (BEG)
Name Belgrade
Region Serbia and Montenegro
Timezone Europe/Belgrade (UTC+1.0)
Stats Elevation 335 ft / 102 m (AMSL)
Location 44.818429° 20.309211°
Runways 1
Magnetic Variation 4.672° E

METAR

LYBE 161830Z 20003KT 9999 SCT020 03/02 Q1012 NOSIG

Decode

TAF

TAF LYBE 161700Z 1618/1718 25005KT 8000 SCT033 TX04/1712Z TNM01/1705Z BECMG 1621/1623 3000 BR TEMPO 1700/1704 1500 BECMG 1706/1708 31010KT 9999 NSW

Decode

Destination Runways

ID Width Length Bearing (true) Bearing (mag) Surface Threshold Offset Overrun Length
12 148 ft / 45 m 11,138 ft / 3,395 m 122.00° 117.33° Asphalt 1,000 ft / 305 m 0 ft / 0 m
30 148 ft / 45 m 11,138 ft / 3,395 m 302.03° 297.36° Asphalt 1,312 ft / 400 m 0 ft / 0 m

Approach Navaids

Runway Type Ident Frequency Range Bearing (true) Bearing (mag) Slope Elevation
12 Localiser YUB 110.30 MHz 25 nm / 46 km 121.92° 117.25° - 315 ft / 96 m (AMSL)
12 Glidescope YUB 110.30 MHz 25 nm / 46 km 121.92° 117.25° 3.00° 305 ft / 93 m (AMSL)
30 Localiser YBE 109.90 MHz 25 nm / 46 km 301.94° 297.27° - 298 ft / 91 m (AMSL)
30 Glidescope YBE 109.90 MHz 25 nm / 46 km 301.94° 297.27° 3.00° 328 ft / 100 m (AMSL)

Popular Alternatives